createdAt,value
2022-08-04T00:01:34.198Z,20.70
2022-08-04T00:03:17.427Z,20.70
2022-08-04T00:04:54.479Z,20.70
2022-08-04T00:06:40.777Z,20.50
2022-08-04T00:08:23.129Z,20.60
2022-08-04T00:10:02.301Z,20.60
2022-08-04T00:11:36.245Z,20.60
2022-08-04T00:13:10.521Z,20.60
2022-08-04T00:14:49.426Z,20.50
2022-08-04T00:16:24.710Z,20.50
2022-08-04T00:18:09.277Z,20.50
2022-08-04T00:19:46.078Z,20.50
2022-08-04T00:21:22.203Z,20.60
2022-08-04T00:22:58.438Z,20.60
2022-08-04T00:24:32.564Z,20.60
2022-08-04T00:26:05.801Z,20.50
2022-08-04T00:27:39.929Z,20.50
2022-08-04T00:29:13.123Z,20.50
2022-08-04T00:30:46.424Z,20.50
2022-08-04T00:32:31.162Z,20.50
2022-08-04T00:34:08.559Z,20.50
2022-08-04T00:35:42.177Z,20.50
2022-08-04T00:37:16.392Z,20.50
2022-08-04T00:38:52.647Z,20.40
2022-08-04T00:40:33.811Z,20.40
2022-08-04T00:42:32.622Z,20.40
2022-08-04T00:44:23.699Z,20.40
2022-08-04T00:46:36.175Z,20.50
2022-08-04T00:48:18.946Z,20.50
2022-08-04T00:50:05.549Z,20.50
2022-08-04T00:51:48.485Z,20.50
2022-08-04T00:53:56.429Z,20.50
2022-08-04T00:55:56.901Z,20.50
2022-08-04T00:57:40.291Z,20.50
2022-08-04T00:59:27.221Z,20.50
2022-08-04T01:01:03.190Z,20.50
2022-08-04T01:02:51.527Z,20.60
2022-08-04T01:04:41.368Z,20.60
2022-08-04T01:06:30.718Z,20.60
2022-08-04T01:08:37.503Z,20.60
2022-08-04T01:10:20.944Z,20.70
2022-08-04T01:12:09.027Z,20.70
2022-08-04T01:14:09.896Z,20.70
2022-08-04T01:15:59.958Z,20.70
2022-08-04T01:17:44.854Z,20.70
2022-08-04T01:19:46.247Z,20.60
2022-08-04T01:21:47.720Z,20.60
2022-08-04T01:24:06.289Z,20.50
2022-08-04T01:26:43.289Z,20.60
2022-08-04T01:28:26.323Z,20.60
2022-08-04T01:30:02.445Z,20.60
2022-08-04T01:31:50.314Z,20.60
2022-08-04T01:33:24.510Z,20.60
2022-08-04T01:35:03.542Z,20.60
2022-08-04T01:36:35.956Z,20.60
2022-08-04T01:38:20.076Z,20.60
2022-08-04T01:40:02.378Z,20.70
2022-08-04T01:41:35.620Z,20.60
2022-08-04T01:43:10.844Z,20.60
2022-08-04T01:44:44.844Z,20.60
2022-08-04T01:46:19.494Z,20.50
2022-08-04T01:47:54.361Z,20.50
2022-08-04T01:49:32.122Z,20.50
2022-08-04T01:51:17.438Z,20.50
2022-08-04T01:52:54.456Z,20.50
2022-08-04T01:54:28.849Z,20.60
2022-08-04T01:56:02.939Z,20.60
2022-08-04T01:57:39.474Z,20.50
2022-08-04T01:59:16.377Z,20.50
2022-08-04T02:00:58.290Z,20.50
2022-08-04T02:02:32.921Z,20.50
2022-08-04T02:04:21.226Z,20.50
2022-08-04T02:06:06.072Z,20.50
2022-08-04T02:07:49.438Z,20.50
2022-08-04T02:09:30.966Z,20.60
2022-08-04T02:11:12.209Z,20.60
2022-08-04T02:12:56.315Z,20.60
2022-08-04T02:14:45.310Z,20.50
2022-08-04T02:16:29.880Z,20.60
2022-08-04T02:18:07.116Z,20.50
2022-08-04T02:19:56.328Z,20.50
2022-08-04T02:21:42.439Z,20.50
2022-08-04T02:23:31.384Z,20.40
2022-08-04T02:25:08.891Z,20.30
2022-08-04T02:26:44.904Z,20.30
2022-08-04T02:28:24.108Z,20.30
2022-08-04T02:30:03.926Z,20.30
2022-08-04T02:31:42.859Z,20.30
2022-08-04T02:33:31.728Z,20.30
2022-08-04T02:35:08.993Z,20.30
2022-08-04T02:36:43.684Z,20.20
2022-08-04T02:38:25.636Z,20.20
2022-08-04T02:40:02.498Z,20.20
2022-08-04T02:41:36.902Z,20.20
2022-08-04T02:43:10.436Z,20.10
2022-08-04T02:44:47.632Z,20.20
2022-08-04T02:46:22.057Z,20.20
2022-08-04T02:48:23.611Z,20.20
2022-08-04T02:49:52.844Z,20.10
2022-08-04T02:51:29.890Z,20.10
2022-08-04T02:53:09.826Z,20.10
2022-08-04T02:54:45.849Z,20.10
2022-08-04T02:56:21.366Z,20.10
2022-08-04T02:57:57.526Z,20.10
2022-08-04T02:59:39.927Z,20.00
2022-08-04T03:01:13.144Z,20.00
2022-08-04T03:02:56.745Z,20.00
2022-08-04T03:04:44.491Z,20.10
2022-08-04T03:07:07.412Z,20.00
2022-08-04T03:09:05.212Z,20.00
2022-08-04T03:11:13.053Z,20.00
2022-08-04T03:13:18.856Z,19.90
2022-08-04T03:15:21.802Z,19.90
2022-08-04T03:17:24.413Z,19.90
2022-08-04T03:19:27.260Z,19.80
2022-08-04T03:21:36.776Z,19.80
2022-08-04T03:23:36.367Z,19.90
2022-08-04T03:25:27.574Z,19.90
2022-08-04T03:27:36.316Z,19.90
2022-08-04T03:29:43.441Z,19.90
2022-08-04T03:31:39.322Z,19.90
2022-08-04T03:33:40.995Z,19.90
2022-08-04T03:35:45.122Z,20.00
2022-08-04T03:37:39.709Z,19.90
2022-08-04T03:39:55.944Z,20.00
2022-08-04T03:41:57.316Z,20.00
2022-08-04T03:43:59.675Z,20.10
2022-08-04T03:46:07.946Z,20.10
2022-08-04T03:47:59.760Z,20.10
2022-08-04T03:50:15.177Z,20.10
2022-08-04T03:52:20.658Z,20.10
2022-08-04T03:54:21.249Z,20.10
2022-08-04T03:56:37.967Z,20.10
2022-08-04T03:58:48.006Z,20.10
2022-08-04T04:00:22.379Z,20.20
2022-08-04T04:02:14.989Z,20.10
2022-08-04T04:04:14.414Z,20.20
2022-08-04T04:06:25.745Z,20.20
2022-08-04T04:08:19.371Z,20.30
2022-08-04T04:10:26.838Z,20.30
2022-08-04T04:12:23.951Z,20.30
2022-08-04T04:14:36.210Z,20.40
2022-08-04T04:16:29.891Z,20.50
2022-08-04T04:18:20.552Z,20.50
2022-08-04T04:20:24.805Z,20.50
2022-08-04T04:22:14.387Z,20.60
2022-08-04T04:24:03.663Z,20.70
2022-08-04T04:25:42.379Z,20.80
2022-08-04T04:27:32.619Z,20.80
2022-08-04T04:29:29.566Z,20.80
2022-08-04T04:31:21.459Z,20.90
2022-08-04T04:33:20.649Z,21.00
2022-08-04T04:35:20.425Z,21.00
2022-08-04T04:37:08.688Z,21.10
2022-08-04T04:38:53.794Z,21.20
2022-08-04T04:40:35.877Z,21.30
2022-08-04T04:42:28.425Z,21.40
2022-08-04T04:44:30.717Z,21.50
2022-08-04T04:46:15.326Z,21.50
2022-08-04T04:48:08.623Z,21.60
2022-08-04T04:49:53.014Z,21.70
2022-08-04T04:51:37.351Z,21.80
2022-08-04T04:53:19.207Z,21.90
2022-08-04T04:54:59.969Z,21.90
2022-08-04T04:56:41.977Z,22.00
2022-08-04T04:58:19.973Z,22.20
2022-08-04T04:59:57.457Z,22.20
2022-08-04T05:02:00.371Z,22.30
2022-08-04T05:03:58.173Z,22.40
2022-08-04T05:06:11.651Z,22.60
2022-08-04T05:08:43.263Z,22.70
2022-08-04T05:10:10.228Z,22.80
2022-08-04T05:14:26.378Z,23.00
2022-08-04T05:14:38.494Z,23.10
2022-08-04T05:16:19.537Z,23.20
2022-08-04T05:17:54.819Z,23.30
2022-08-04T05:19:34.915Z,23.40
2022-08-04T05:21:29.389Z,23.50
2022-08-04T05:23:08.060Z,23.60
2022-08-04T05:24:45.625Z,23.70
2022-08-04T05:26:24.978Z,23.70
2022-08-04T05:28:04.131Z,23.90
2022-08-04T05:29:46.034Z,23.90
2022-08-04T05:31:24.097Z,24.00
2022-08-04T05:33:03.460Z,24.10
2022-08-04T05:34:43.461Z,24.20
2022-08-04T05:36:39.539Z,24.30
2022-08-04T05:38:18.041Z,24.40
2022-08-04T05:39:55.767Z,24.50
2022-08-04T05:41:32.389Z,24.60
2022-08-04T05:43:19.217Z,24.70
2022-08-04T05:44:55.352Z,24.80
2022-08-04T05:46:30.392Z,24.90
2022-08-04T05:48:04.785Z,25.00
2022-08-04T05:49:40.151Z,25.20
2022-08-04T05:51:15.416Z,25.30
2022-08-04T05:52:50.803Z,26.00
2022-08-04T05:54:35.106Z,27.30
2022-08-04T05:56:07.657Z,28.70
2022-08-04T05:57:42.089Z,29.90
2022-08-04T05:59:16.481Z,30.90
2022-08-04T06:00:52.952Z,30.80
2022-08-04T06:02:28.509Z,31.30
2022-08-04T06:04:08.066Z,31.60
2022-08-04T06:05:45.811Z,32.20
2022-08-04T06:07:19.384Z,32.30
2022-08-04T06:08:52.934Z,32.30
2022-08-04T06:10:29.777Z,32.70
2022-08-04T06:12:08.233Z,32.50
2022-08-04T06:13:50.320Z,32.10
2022-08-04T06:15:27.308Z,31.80
2022-08-04T06:18:33.145Z,31.70
2022-08-04T06:20:02.864Z,31.60
2022-08-04T06:21:03.664Z,31.80
2022-08-04T06:22:48.844Z,31.90
2022-08-04T06:24:26.429Z,32.10
2022-08-04T06:26:02.164Z,32.30
2022-08-04T06:27:35.772Z,32.50
2022-08-04T06:29:17.473Z,33.00
2022-08-04T06:30:51.226Z,33.30
2022-08-04T06:32:34.799Z,34.00
2022-08-04T06:34:13.805Z,34.20
2022-08-04T06:35:47.879Z,33.70
2022-08-04T06:37:41.102Z,33.40
2022-08-04T06:39:16.063Z,34.00
2022-08-04T06:40:49.497Z,33.90
2022-08-04T06:42:25.007Z,33.70
2022-08-04T06:44:02.439Z,33.90
2022-08-04T06:45:38.597Z,33.90
2022-08-04T06:47:14.052Z,33.90
2022-08-04T06:48:49.291Z,33.70
2022-08-04T06:51:28.109Z,33.70
2022-08-04T06:52:18.701Z,33.80
2022-08-04T06:53:52.274Z,34.50
2022-08-04T06:55:26.157Z,34.80
2022-08-04T06:57:00.218Z,34.30
2022-08-04T07:00:26.405Z,34.90
2022-08-04T07:02:01.384Z,35.20
2022-08-04T07:03:34.957Z,35.00
2022-08-04T07:05:09.649Z,35.10
2022-08-04T07:06:43.209Z,34.90
2022-08-04T07:08:16.746Z,35.20
2022-08-04T07:09:49.989Z,35.00
2022-08-04T07:11:24.151Z,34.90
2022-08-04T07:12:57.937Z,35.10
2022-08-04T07:14:36.040Z,35.60
2022-08-04T07:16:14.275Z,35.80
2022-08-04T07:17:49.695Z,35.80
2022-08-04T07:19:25.431Z,35.40
2022-08-04T07:20:58.872Z,35.50
2022-08-04T07:22:32.530Z,35.70
2022-08-04T07:24:06.408Z,36.30
2022-08-04T07:25:58.980Z,36.00
2022-08-04T07:27:47.847Z,36.10
2022-08-04T07:29:23.256Z,36.30
2022-08-04T07:30:58.413Z,36.20
2022-08-04T07:32:34.164Z,36.30
2022-08-04T07:34:17.192Z,37.10
2022-08-04T07:36:09.323Z,37.40
2022-08-04T07:37:44.160Z,37.10
2022-08-04T07:39:26.439Z,37.30
2022-08-04T07:41:03.799Z,37.70
2022-08-04T07:42:37.432Z,38.50
2022-08-04T07:44:11.883Z,38.80
2022-08-04T07:45:45.358Z,39.30
2022-08-04T07:47:25.117Z,39.20
2022-08-04T07:49:01.636Z,38.90
2022-08-04T07:50:35.636Z,38.30
2022-08-04T07:52:09.212Z,37.70
2022-08-04T07:53:55.136Z,38.10
2022-08-04T07:55:30.540Z,38.00
2022-08-04T07:57:04.490Z,37.60
2022-08-04T07:58:37.841Z,36.80
2022-08-04T08:00:14.469Z,36.50
2022-08-04T08:01:48.005Z,36.70
2022-08-04T08:03:22.108Z,36.70
2022-08-04T08:04:57.069Z,36.40
2022-08-04T08:06:34.752Z,36.80
2022-08-04T08:08:11.645Z,37.30
2022-08-04T08:09:44.780Z,37.30
2022-08-04T08:11:18.642Z,37.20
2022-08-04T08:12:53.074Z,36.80
2022-08-04T08:14:26.658Z,36.50
2022-08-04T08:16:00.764Z,37.00
2022-08-04T08:17:58.759Z,37.10
2022-08-04T08:19:27.689Z,36.70
2022-08-04T08:21:02.395Z,36.80
2022-08-04T08:22:36.911Z,37.20
2022-08-04T08:24:13.047Z,37.20
2022-08-04T08:25:46.681Z,36.80
2022-08-04T08:27:20.286Z,36.40
2022-08-04T08:28:54.191Z,36.20
2022-08-04T08:30:31.658Z,36.30
2022-08-04T08:32:13.143Z,36.30
2022-08-04T08:33:48.789Z,36.30
2022-08-04T08:35:23.721Z,36.30
2022-08-04T08:37:05.791Z,36.00
2022-08-04T08:38:50.699Z,35.70
2022-08-04T08:40:40.215Z,35.70
2022-08-04T08:42:37.410Z,35.90
2022-08-04T08:44:45.560Z,36.00
2022-08-04T08:46:54.085Z,36.20
2022-08-04T08:48:49.197Z,36.40
2022-08-04T08:50:45.349Z,36.40
2022-08-04T08:52:57.667Z,36.70
2022-08-04T08:54:41.661Z,37.30
2022-08-04T08:56:31.010Z,37.30
2022-08-04T08:58:32.369Z,37.00
2022-08-04T09:00:16.758Z,37.20
2022-08-04T09:02:03.765Z,37.30
2022-08-04T09:04:06.292Z,37.80
2022-08-04T09:06:07.668Z,37.90
2022-08-04T09:07:58.918Z,37.80
2022-08-04T09:09:50.351Z,37.50
2022-08-04T09:11:27.080Z,37.60
2022-08-04T09:13:05.518Z,37.90
2022-08-04T09:14:46.396Z,38.10
2022-08-04T09:16:25.366Z,38.10
2022-08-04T09:18:03.450Z,38.30
2022-08-04T09:19:43.627Z,38.60
2022-08-04T09:21:24.395Z,38.50
2022-08-04T09:23:09.784Z,38.70
2022-08-04T09:24:51.830Z,39.00
2022-08-04T09:29:44.268Z,39.40
2022-08-04T09:31:22.023Z,39.50
2022-08-04T09:33:05.494Z,39.50
2022-08-04T09:35:03.290Z,39.60
2022-08-04T09:36:48.815Z,40.00
2022-08-04T09:38:33.168Z,40.20
2022-08-04T09:40:14.596Z,40.50
2022-08-04T09:42:23.186Z,40.60
2022-08-04T09:44:51.263Z,40.30
2022-08-04T09:46:10.777Z,40.30
2022-08-04T09:47:50.453Z,40.40
2022-08-04T09:49:30.947Z,40.30
2022-08-04T09:51:12.119Z,40.20
2022-08-04T09:52:57.403Z,40.30
2022-08-04T09:54:43.275Z,40.80
2022-08-04T09:56:24.425Z,40.60
2022-08-04T09:58:06.597Z,40.20
2022-08-04T09:59:46.848Z,40.10
2022-08-04T10:01:24.049Z,39.40
2022-08-04T10:03:01.050Z,39.20
2022-08-04T10:04:36.117Z,39.00
2022-08-04T10:06:35.798Z,39.10
2022-08-04T10:08:23.973Z,39.70
2022-08-04T10:10:18.566Z,39.40
2022-08-04T10:12:00.604Z,38.70
2022-08-04T10:13:53.185Z,38.80
2022-08-04T10:15:35.061Z,39.20
2022-08-04T10:17:23.492Z,40.10
2022-08-04T10:19:07.840Z,40.80
2022-08-04T10:20:57.435Z,40.70
2022-08-04T10:22:55.583Z,40.60
2022-08-04T10:24:49.653Z,39.90
2022-08-04T10:26:33.723Z,39.10
2022-08-04T10:28:13.057Z,38.20
2022-08-04T10:29:47.445Z,37.50
2022-08-04T10:31:25.719Z,37.00
2022-08-04T10:33:05.147Z,37.00
2022-08-04T10:34:45.368Z,37.60
2022-08-04T10:36:23.278Z,38.00
2022-08-04T10:38:04.428Z,38.40
2022-08-04T10:40:06.130Z,38.80
2022-08-04T10:41:50.463Z,38.60
2022-08-04T10:43:33.323Z,38.00
2022-08-04T10:45:15.242Z,37.20
2022-08-04T10:46:53.943Z,36.90
2022-08-04T10:48:40.357Z,36.60
2022-08-04T10:50:14.507Z,36.60
2022-08-04T10:51:58.672Z,36.60
2022-08-04T10:53:35.930Z,37.30
2022-08-04T10:55:18.429Z,37.70
2022-08-04T10:56:57.431Z,38.00
2022-08-04T10:58:47.295Z,38.00
2022-08-04T11:00:26.251Z,37.50
2022-08-04T11:02:20.613Z,37.10
2022-08-04T11:03:59.808Z,36.80
2022-08-04T11:05:44.124Z,37.10
2022-08-04T11:07:19.505Z,37.80
2022-08-04T11:08:56.308Z,38.30
2022-08-04T11:10:34.223Z,38.60
2022-08-04T11:12:16.132Z,38.20
2022-08-04T11:13:55.532Z,38.30
2022-08-04T11:15:35.465Z,38.00
2022-08-04T11:17:12.678Z,37.70
2022-08-04T11:18:54.757Z,37.10
2022-08-04T11:20:36.307Z,36.80
2022-08-04T11:22:11.589Z,37.20
2022-08-04T11:23:51.819Z,37.20
2022-08-04T11:25:30.769Z,37.10
2022-08-04T11:27:12.936Z,36.70
2022-08-04T11:29:04.027Z,36.30
2022-08-04T11:30:41.248Z,36.30
2022-08-04T11:32:20.878Z,37.20
2022-08-04T11:34:06.557Z,38.10
2022-08-04T11:35:48.134Z,38.60
2022-08-04T11:37:26.894Z,38.80
2022-08-04T11:39:08.789Z,39.60
2022-08-04T11:40:55.719Z,39.90
2022-08-04T11:42:40.029Z,40.20
2022-08-04T11:44:20.733Z,40.20
2022-08-04T11:46:00.494Z,40.00
2022-08-04T11:47:41.226Z,39.90
2022-08-04T11:49:25.365Z,40.60
2022-08-04T11:51:02.391Z,40.20
2022-08-04T11:52:43.686Z,39.70
2022-08-04T11:54:17.910Z,39.90
2022-08-04T11:56:07.982Z,40.10
2022-08-04T11:57:45.420Z,40.20
2022-08-04T11:59:30.252Z,39.60
2022-08-04T12:01:15.013Z,39.20
2022-08-04T12:03:11.976Z,39.30
2022-08-04T12:04:53.458Z,39.90
2022-08-04T12:06:33.673Z,40.40
2022-08-04T12:08:25.294Z,40.60
2022-08-04T12:10:41.039Z,40.50
2022-08-04T12:12:25.863Z,40.40
2022-08-04T12:14:11.208Z,39.90
2022-08-04T12:16:02.114Z,40.20
2022-08-04T12:17:53.414Z,40.70
2022-08-04T12:19:43.770Z,40.60
2022-08-04T12:21:30.671Z,40.70
2022-08-04T12:23:08.023Z,40.70
2022-08-04T12:24:45.913Z,41.10
2022-08-04T12:26:26.380Z,41.40
2022-08-04T12:28:06.289Z,41.40
2022-08-04T12:29:42.435Z,41.00
2022-08-04T12:31:41.622Z,40.40
2022-08-04T12:33:21.753Z,39.90
2022-08-04T12:35:04.475Z,39.50
2022-08-04T12:36:44.569Z,39.30
2022-08-04T12:38:17.689Z,39.60
2022-08-04T12:40:29.060Z,39.90
2022-08-04T12:41:54.808Z,39.80
2022-08-04T12:43:37.747Z,40.40
2022-08-04T12:45:13.664Z,40.60
2022-08-04T12:46:48.056Z,40.60
2022-08-04T12:48:22.643Z,40.20
2022-08-04T12:50:01.299Z,40.60
2022-08-04T12:52:06.156Z,40.70
2022-08-04T12:53:51.199Z,40.60
2022-08-04T12:55:28.730Z,40.80
2022-08-04T12:57:03.247Z,40.70
2022-08-04T12:58:42.292Z,40.30
2022-08-04T13:00:30.067Z,40.20
2022-08-04T13:02:12.100Z,40.20
2022-08-04T13:03:48.557Z,40.30
2022-08-04T13:05:23.372Z,40.00
2022-08-04T13:07:07.181Z,40.00
2022-08-04T13:08:42.791Z,39.60
2022-08-04T13:10:19.267Z,40.30
2022-08-04T13:11:56.769Z,40.20
2022-08-04T13:13:35.707Z,40.40
2022-08-04T13:15:17.986Z,40.40
2022-08-04T13:17:00.207Z,40.60
2022-08-04T13:18:36.814Z,40.70
2022-08-04T13:20:10.385Z,40.50
2022-08-04T13:21:49.809Z,40.30
2022-08-04T13:24:09.446Z,39.70
2022-08-04T13:27:26.680Z,39.70
2022-08-04T13:29:16.287Z,39.70
2022-08-04T13:30:25.284Z,39.50
2022-08-04T13:30:56.292Z,39.40
2022-08-04T13:32:31.839Z,39.40
2022-08-04T13:34:08.703Z,39.80
2022-08-04T13:35:55.691Z,40.20
2022-08-04T13:37:35.883Z,40.30
2022-08-04T13:39:17.380Z,39.70
2022-08-04T13:40:52.014Z,39.70
2022-08-04T13:42:26.912Z,40.00
2022-08-04T13:44:17.893Z,39.90
2022-08-04T13:45:59.549Z,39.60
2022-08-04T13:47:38.019Z,39.80
2022-08-04T13:49:31.207Z,39.80
2022-08-04T13:51:08.518Z,40.10
2022-08-04T13:52:42.807Z,40.40
2022-08-04T13:54:16.154Z,40.40
2022-08-04T13:55:50.588Z,40.50
2022-08-04T13:57:44.072Z,40.10
2022-08-04T13:59:19.513Z,40.40
2022-08-04T14:00:55.888Z,40.20
2022-08-04T14:02:35.570Z,40.40
2022-08-04T14:04:14.222Z,40.70
2022-08-04T14:06:06.260Z,40.70
2022-08-04T14:07:46.304Z,39.90
2022-08-04T14:09:20.900Z,39.40
2022-08-04T14:10:57.915Z,38.30
2022-08-04T14:12:45.614Z,38.20
2022-08-04T14:14:22.042Z,37.60
2022-08-04T14:16:03.345Z,37.20
2022-08-04T14:17:38.726Z,36.80
2022-08-04T14:19:11.850Z,36.90
2022-08-04T14:21:00.197Z,37.50
2022-08-04T14:22:36.531Z,38.30
2022-08-04T14:24:09.637Z,38.70
2022-08-04T14:25:42.824Z,39.00
2022-08-04T14:27:16.041Z,39.40
2022-08-04T14:29:25.256Z,39.20
2022-08-04T14:30:42.991Z,39.20
2022-08-04T14:32:16.515Z,38.80
2022-08-04T14:34:02.424Z,38.20
2022-08-04T14:35:50.411Z,37.60
2022-08-04T14:37:24.386Z,37.50
2022-08-04T14:39:00.793Z,37.10
2022-08-04T14:40:36.110Z,36.60
2022-08-04T14:42:10.181Z,36.50
2022-08-04T14:43:45.982Z,36.60
2022-08-04T14:45:19.164Z,36.90
2022-08-04T14:46:55.392Z,37.10
2022-08-04T14:48:28.487Z,37.10
2022-08-04T14:50:03.017Z,37.10
2022-08-04T14:51:39.161Z,37.10
2022-08-04T14:53:14.001Z,37.20
2022-08-04T14:54:47.440Z,37.10
2022-08-04T14:56:44.925Z,37.10
2022-08-04T14:58:35.571Z,37.00
2022-08-04T15:00:17.105Z,37.00
2022-08-04T15:02:00.223Z,36.90
2022-08-04T15:03:35.463Z,36.70
2022-08-04T15:05:55.061Z,36.70
2022-08-04T15:07:18.979Z,36.70
2022-08-04T15:08:52.731Z,36.70
2022-08-04T15:10:26.914Z,36.80
2022-08-04T15:12:00.522Z,36.90
2022-08-04T15:13:35.063Z,37.00
2022-08-04T15:15:33.877Z,36.80
2022-08-04T15:17:02.239Z,36.70
2022-08-04T15:18:35.913Z,36.50
2022-08-04T15:20:11.288Z,36.40
2022-08-04T15:21:45.764Z,36.40
2022-08-04T15:23:19.132Z,36.40
2022-08-04T15:24:55.614Z,36.30
2022-08-04T15:26:34.312Z,36.30
2022-08-04T15:28:12.441Z,36.20
2022-08-04T15:29:59.567Z,36.20
2022-08-04T15:32:07.953Z,36.10
2022-08-04T15:33:34.339Z,36.10
2022-08-04T15:35:12.821Z,36.10
2022-08-04T15:36:57.132Z,36.10
2022-08-04T15:38:37.470Z,36.00
2022-08-04T15:40:14.487Z,36.00
2022-08-04T15:42:04.815Z,35.90
2022-08-04T15:43:55.440Z,35.80
2022-08-04T15:46:02.162Z,35.80
2022-08-04T15:47:23.932Z,35.80
2022-08-04T15:48:57.070Z,35.70
2022-08-04T15:50:30.595Z,35.60
2022-08-04T15:52:11.760Z,35.50
2022-08-04T15:54:28.041Z,35.50
2022-08-04T15:56:43.757Z,35.50
2022-08-04T15:58:22.895Z,35.40
2022-08-04T16:00:02.484Z,35.20
2022-08-04T16:02:10.898Z,35.10
2022-08-04T16:03:59.087Z,35.00
2022-08-04T16:05:40.129Z,34.60
2022-08-04T16:07:14.728Z,34.30
2022-08-04T16:08:59.735Z,34.20
2022-08-04T16:10:41.068Z,34.20
2022-08-04T16:12:55.608Z,34.10
2022-08-04T16:14:39.195Z,34.10
2022-08-04T16:16:27.709Z,34.10
2022-08-04T16:17:59.860Z,34.20
2022-08-04T16:19:47.530Z,34.30
2022-08-04T16:21:23.621Z,34.40
2022-08-04T16:23:02.234Z,34.50
2022-08-04T16:24:38.238Z,34.60
2022-08-04T16:26:11.456Z,34.60
2022-08-04T16:27:46.064Z,34.60
2022-08-04T16:29:43.477Z,34.40
2022-08-04T16:31:16.671Z,34.30
2022-08-04T16:32:50.067Z,34.30
2022-08-04T16:34:48.926Z,34.20
2022-08-04T16:36:16.770Z,34.20
2022-08-04T16:37:54.572Z,34.10
2022-08-04T16:39:29.454Z,34.00
2022-08-04T16:41:39.542Z,33.90
2022-08-04T16:43:14.746Z,33.80
2022-08-04T16:44:59.435Z,33.70
2022-08-04T16:47:08.214Z,33.80
2022-08-04T16:48:37.551Z,33.80
2022-08-04T16:50:10.180Z,33.90
2022-08-04T16:51:43.371Z,33.90
2022-08-04T16:53:52.089Z,33.90
2022-08-04T16:55:13.167Z,33.90
2022-08-04T16:56:47.296Z,33.90
2022-08-04T16:58:27.473Z,34.00
2022-08-04T17:00:07.393Z,34.00
2022-08-04T17:01:49.371Z,34.00
2022-08-04T17:03:22.794Z,33.90
2022-08-04T17:05:07.208Z,33.90
2022-08-04T17:06:43.922Z,33.90
2022-08-04T17:08:29.583Z,33.90
2022-08-04T17:10:03.403Z,33.90
2022-08-04T17:11:38.090Z,33.90
2022-08-04T17:14:03.348Z,33.80
2022-08-04T17:15:22.586Z,33.80
2022-08-04T17:16:58.871Z,33.70
2022-08-04T17:18:35.130Z,33.60
2022-08-04T17:20:09.341Z,33.60
2022-08-04T17:21:42.518Z,33.60
2022-08-04T17:24:16.208Z,33.50
2022-08-04T17:25:51.825Z,33.50
2022-08-04T17:28:08.750Z,33.40
2022-08-04T17:29:19.859Z,33.30
2022-08-04T17:30:56.143Z,33.30
2022-08-04T17:32:29.339Z,33.20
2022-08-04T17:34:04.151Z,33.20
2022-08-04T17:35:41.340Z,33.20
2022-08-04T17:37:39.401Z,33.20
2022-08-04T17:39:17.726Z,33.20
2022-08-04T17:40:57.203Z,33.00
2022-08-04T17:42:35.367Z,33.00
2022-08-04T17:44:09.021Z,33.00
2022-08-04T17:45:53.525Z,32.90
2022-08-04T17:47:29.863Z,32.80
2022-08-04T17:49:22.642Z,32.70
2022-08-04T17:50:54.955Z,32.60
2022-08-04T17:52:44.739Z,32.60
2022-08-04T17:54:29.734Z,32.50
2022-08-04T17:56:36.317Z,32.40
2022-08-04T17:58:26.831Z,32.30
2022-08-04T18:00:00.459Z,32.30
2022-08-04T18:01:41.193Z,32.20
2022-08-04T18:03:30.053Z,32.10
2022-08-04T18:05:06.818Z,32.00
2022-08-04T18:06:50.292Z,31.90
2022-08-04T18:08:39.843Z,31.80
2022-08-04T18:10:30.707Z,31.70
2022-08-04T18:12:14.817Z,31.50
2022-08-04T18:13:56.990Z,31.30
2022-08-04T18:15:44.275Z,31.20
2022-08-04T18:18:21.098Z,31.00
2022-08-04T18:19:31.202Z,30.90
2022-08-04T18:21:05.521Z,30.70
2022-08-04T18:22:41.847Z,30.70
2022-08-04T18:24:16.270Z,30.50
2022-08-04T18:25:50.833Z,30.40
2022-08-04T18:27:29.834Z,30.20
2022-08-04T18:29:05.050Z,30.10
2022-08-04T18:30:54.862Z,29.90
2022-08-04T18:32:33.359Z,29.80
2022-08-04T18:34:12.074Z,29.50
2022-08-04T18:36:34.364Z,29.30
2022-08-04T18:38:06.301Z,29.20
2022-08-04T18:40:09.838Z,29.00
2022-08-04T18:41:28.851Z,28.80
2022-08-04T18:43:27.892Z,28.70
2022-08-04T18:45:05.830Z,28.50
2022-08-04T18:46:38.973Z,28.40
2022-08-04T18:48:36.957Z,28.30
2022-08-04T18:52:03.608Z,28.10
2022-08-04T18:53:37.042Z,28.00
2022-08-04T18:55:11.151Z,27.90
2022-08-04T18:57:16.743Z,27.80
2022-08-04T18:58:38.504Z,27.70
2022-08-04T19:00:15.250Z,27.60
2022-08-04T19:02:12.493Z,27.50
2022-08-04T19:03:44.730Z,27.40
2022-08-04T19:05:21.383Z,27.30
2022-08-04T19:06:54.788Z,27.20
2022-08-04T19:08:33.217Z,27.20
2022-08-04T19:10:08.545Z,27.10
2022-08-04T19:11:59.988Z,27.00
2022-08-04T19:13:38.807Z,26.90
2022-08-04T19:15:11.946Z,26.80
2022-08-04T19:16:48.345Z,26.80
2022-08-04T19:18:20.608Z,26.70
2022-08-04T19:19:53.832Z,26.60
2022-08-04T19:21:59.223Z,26.60
2022-08-04T19:24:27.415Z,26.50
2022-08-04T19:26:03.909Z,26.40
2022-08-04T19:27:11.293Z,26.40
2022-08-04T19:28:44.556Z,26.30
2022-08-04T19:30:20.783Z,26.20
2022-08-04T19:31:58.927Z,26.20
2022-08-04T19:33:59.507Z,26.20
2022-08-04T19:35:25.309Z,26.20
2022-08-04T19:37:02.549Z,26.30
2022-08-04T19:38:38.079Z,26.20
2022-08-04T19:40:12.874Z,26.20
2022-08-04T19:42:05.747Z,26.20
2022-08-04T19:43:43.550Z,26.10
2022-08-04T19:45:17.248Z,26.10
2022-08-04T19:46:50.363Z,26.10
2022-08-04T19:48:30.382Z,26.10
2022-08-04T19:50:10.687Z,26.10
2022-08-04T19:51:46.241Z,26.00
2022-08-04T19:53:20.108Z,26.00
2022-08-04T19:55:10.893Z,26.00
2022-08-04T19:56:46.425Z,25.90
2022-08-04T19:58:26.014Z,25.80
2022-08-04T19:59:59.522Z,25.90
2022-08-04T20:01:43.785Z,25.90
2022-08-04T20:03:20.451Z,25.80
2022-08-04T20:04:55.571Z,25.60
2022-08-04T20:06:29.404Z,25.60
2022-08-04T20:08:03.046Z,25.60
2022-08-04T20:09:37.517Z,25.60
2022-08-04T20:11:11.089Z,25.60
2022-08-04T20:12:44.970Z,25.60
2022-08-04T20:14:32.840Z,25.50
2022-08-04T20:18:08.296Z,25.60
2022-08-04T20:19:55.049Z,25.50
2022-08-04T20:21:53.445Z,25.50
2022-08-04T20:23:28.638Z,25.50
2022-08-04T20:25:36.087Z,25.50
2022-08-04T20:27:15.600Z,25.40
2022-08-04T20:28:52.134Z,25.30
2022-08-04T20:30:28.282Z,25.30
2022-08-04T20:32:05.417Z,25.20
2022-08-04T20:33:41.820Z,25.30
2022-08-04T20:35:28.271Z,25.20
2022-08-04T20:37:01.809Z,25.20
2022-08-04T20:38:34.933Z,25.20
2022-08-04T20:40:09.063Z,25.20
2022-08-04T20:41:44.950Z,25.20
2022-08-04T20:43:18.248Z,25.10
2022-08-04T20:44:53.682Z,25.10
2022-08-04T20:46:29.100Z,25.10
2022-08-04T20:48:02.945Z,25.00
2022-08-04T20:49:36.057Z,25.00
2022-08-04T20:51:10.508Z,24.80
2022-08-04T20:52:44.368Z,24.70
2022-08-04T20:54:22.791Z,24.60
2022-08-04T20:55:59.641Z,24.60
2022-08-04T20:57:47.719Z,24.60
2022-08-04T20:59:23.215Z,24.40
2022-08-04T21:00:57.458Z,24.30
2022-08-04T21:02:30.617Z,24.20
2022-08-04T21:04:27.968Z,24.10
2022-08-04T21:06:01.755Z,24.10
2022-08-04T21:07:41.771Z,24.00
2022-08-04T21:11:09.351Z,23.90
2022-08-04T21:12:42.458Z,23.90
2022-08-04T21:14:22.888Z,23.90
2022-08-04T21:16:02.141Z,24.00
2022-08-04T21:17:58.741Z,24.00
2022-08-04T21:19:31.670Z,24.10
2022-08-04T21:21:04.981Z,24.10
2022-08-04T21:22:39.818Z,24.10
2022-08-04T21:24:13.779Z,24.10
2022-08-04T21:25:56.868Z,24.10
2022-08-04T21:27:31.227Z,24.10
2022-08-04T21:29:12.525Z,24.10
2022-08-04T21:30:52.833Z,24.00
2022-08-04T21:32:27.513Z,24.10
2022-08-04T21:34:01.472Z,24.00
2022-08-04T21:35:39.073Z,24.00
2022-08-04T21:37:12.996Z,24.00
2022-08-04T21:38:52.497Z,23.90
2022-08-04T21:42:28.898Z,23.90
2022-08-04T21:44:03.962Z,23.90
2022-08-04T21:45:37.751Z,23.80
2022-08-04T21:47:22.373Z,23.80
2022-08-04T21:48:57.089Z,23.70
2022-08-04T21:50:30.594Z,23.60
2022-08-04T21:52:04.128Z,23.70
2022-08-04T21:53:39.649Z,23.60
2022-08-04T21:55:16.233Z,23.50
2022-08-04T21:56:51.802Z,23.60
2022-08-04T21:58:29.132Z,23.60
2022-08-04T22:00:10.806Z,23.60
2022-08-04T22:01:52.248Z,23.60
2022-08-04T22:03:53.678Z,23.60
2022-08-04T22:05:21.076Z,23.60
2022-08-04T22:06:54.293Z,23.60
2022-08-04T22:08:29.602Z,23.70
2022-08-04T22:10:03.241Z,23.70
2022-08-04T22:11:48.111Z,23.70
2022-08-04T22:13:22.974Z,23.70
2022-08-04T22:14:59.442Z,23.80
2022-08-04T22:16:33.121Z,23.80